sensor_id;sensor_type;location;lat;lon;timestamp;pressure;altitude;pressure_sealevel;temperature;humidity
77041;BME280;65974;42.664;23.264;2023-05-10T00:00:33;94631.47;;;8.37;90.43
77041;BME280;65974;42.664;23.264;2023-05-10T00:02:58;94623.50;;;8.37;90.20
77041;BME280;65974;42.664;23.264;2023-05-10T00:05:23;94620.50;;;8.39;90.54
77041;BME280;65974;42.664;23.264;2023-05-10T00:07:49;94618.56;;;8.36;90.19
77041;BME280;65974;42.664;23.264;2023-05-10T00:10:15;94623.50;;;8.37;90.24
77041;BME280;65974;42.664;23.264;2023-05-10T00:12:40;94616.97;;;8.31;89.86
77041;BME280;65974;42.664;23.264;2023-05-10T00:15:06;94614.03;;;8.36;90.13
77041;BME280;65974;42.664;23.264;2023-05-10T00:17:32;94603.00;;;8.34;90.40
77041;BME280;65974;42.664;23.264;2023-05-10T00:19:57;94612.44;;;8.32;90.26
77041;BME280;65974;42.664;23.264;2023-05-10T00:22:23;94607.84;;;8.29;89.92
77041;BME280;65974;42.664;23.264;2023-05-10T00:24:48;94607.91;;;8.32;89.73
77041;BME280;65974;42.664;23.264;2023-05-10T00:27:14;94602.06;;;8.23;90.36
77041;BME280;65974;42.664;23.264;2023-05-10T00:29:39;94599.41;;;8.23;90.18
77041;BME280;65974;42.664;23.264;2023-05-10T00:32:05;94601.25;;;8.19;90.34
77041;BME280;65974;42.664;23.264;2023-05-10T00:34:31;94601.19;;;8.16;89.52
77041;BME280;65974;42.664;23.264;2023-05-10T00:36:57;94586.03;;;8.16;89.53
77041;BME280;65974;42.664;23.264;2023-05-10T00:39:22;94594.31;;;8.11;89.27
77041;BME280;65974;42.664;23.264;2023-05-10T00:41:48;94592.38;;;8.08;89.27
77041;BME280;65974;42.664;23.264;2023-05-10T00:44:13;94587.75;;;8.05;89.25
77041;BME280;65974;42.664;23.264;2023-05-10T00:46:39;94590.00;;;8.03;89.79
77041;BME280;65974;42.664;23.264;2023-05-10T00:49:04;94586.63;;;8.03;89.69
77041;BME280;65974;42.664;23.264;2023-05-10T00:51:30;94582.38;;;7.98;89.55
77041;BME280;65974;42.664;23.264;2023-05-10T00:53:56;94590.25;;;7.95;88.70
77041;BME280;65974;42.664;23.264;2023-05-10T00:56:22;94579.31;;;7.96;88.95
77041;BME280;65974;42.664;23.264;2023-05-10T00:58:50;94577.78;;;7.95;89.40
77041;BME280;65974;42.664;23.264;2023-05-10T01:01:15;94580.38;;;7.92;89.02
77041;BME280;65974;42.664;23.264;2023-05-10T01:03:41;94580.00;;;7.93;89.21
77041;BME280;65974;42.664;23.264;2023-05-10T01:06:07;94584.22;;;7.94;89.05
77041;BME280;65974;42.664;23.264;2023-05-10T01:08:32;94583.81;;;7.92;88.47
77041;BME280;65974;42.664;23.264;2023-05-10T01:10:58;94579.19;;;7.89;88.86
77041;BME280;65974;42.664;23.264;2023-05-10T01:13:35;94573.91;;;7.89;88.41
77041;BME280;65974;42.664;23.264;2023-05-10T01:16:02;94573.19;;;7.92;88.54
77041;BME280;65974;42.664;23.264;2023-05-10T01:18:29;94579.91;;;7.86;88.34
77041;BME280;65974;42.664;23.264;2023-05-10T01:29:54;94566.56;;;7.79;88.14
77041;BME280;65974;42.664;23.264;2023-05-10T01:32:43;94560.53;;;7.82;88.36
77041;BME280;65974;42.664;23.264;2023-05-10T01:38:29;94550.97;;;7.77;88.40
77041;BME280;65974;42.664;23.264;2023-05-10T01:41:13;94541.56;;;7.80;88.17
77041;BME280;65974;42.664;23.264;2023-05-10T01:43:48;94541.50;;;7.76;87.63
77041;BME280;65974;42.664;23.264;2023-05-10T01:46:22;94538.50;;;7.78;87.73
77041;BME280;65974;42.664;23.264;2023-05-10T01:48:55;94540.34;;;7.74;87.52
77041;BME280;65974;42.664;23.264;2023-05-10T01:51:29;94538.88;;;7.76;87.22
77041;BME280;65974;42.664;23.264;2023-05-10T01:54:00;94538.06;;;7.72;86.77
77041;BME280;65974;42.664;23.264;2023-05-10T01:56:28;94537.28;;;7.72;87.20
77041;BME280;65974;42.664;23.264;2023-05-10T01:58:56;94542.19;;;7.70;87.12
77041;BME280;65974;42.664;23.264;2023-05-10T02:01:23;94547.88;;;7.72;86.89
77041;BME280;65974;42.664;23.264;2023-05-10T02:03:51;94551.97;;;7.66;85.97
77041;BME280;65974;42.664;23.264;2023-05-10T02:06:18;94546.66;;;7.66;86.73
77041;BME280;65974;42.664;23.264;2023-05-10T02:08:46;94550.09;;;7.66;86.49
77041;BME280;65974;42.664;23.264;2023-05-10T02:11:13;94544.25;;;7.57;86.78
77041;BME280;65974;42.664;23.264;2023-05-10T02:13:39;94546.81;;;7.54;86.67
77041;BME280;65974;42.664;23.264;2023-05-10T02:16:07;94548.09;;;7.60;86.58
77041;BME280;65974;42.664;23.264;2023-05-10T02:18:33;94544.19;;;7.54;86.09
77041;BME280;65974;42.664;23.264;2023-05-10T02:21:01;94547.25;;;7.56;86.36
77041;BME280;65974;42.664;23.264;2023-05-10T02:23:28;94545.31;;;7.53;85.32
77041;BME280;65974;42.664;23.264;2023-05-10T02:25:54;94555.78;;;7.46;84.06
77041;BME280;65974;42.664;23.264;2023-05-10T02:28:23;94548.00;;;7.56;84.39
77041;BME280;65974;42.664;23.264;2023-05-10T02:30:50;94541.72;;;7.42;83.45
77041;BME280;65974;42.664;23.264;2023-05-10T02:33:17;94548.81;;;7.34;83.07
77041;BME280;65974;42.664;23.264;2023-05-10T02:35:43;94543.44;;;7.31;81.77
77041;BME280;65974;42.664;23.264;2023-05-10T02:38:10;94548.50;;;7.17;80.72
77041;BME280;65974;42.664;23.264;2023-05-10T02:40:37;94547.13;;;7.03;80.78
77041;BME280;65974;42.664;23.264;2023-05-10T02:43:04;94541.06;;;7.03;80.85
77041;BME280;65974;42.664;23.264;2023-05-10T02:45:31;94540.59;;;6.97;80.59
77041;BME280;65974;42.664;23.264;2023-05-10T02:47:58;94545.34;;;6.88;80.59
77041;BME280;65974;42.664;23.264;2023-05-10T02:50:26;94547.94;;;6.85;80.53
77041;BME280;65974;42.664;23.264;2023-05-10T02:52:55;94543.75;;;6.84;80.64
77041;BME280;65974;42.664;23.264;2023-05-10T02:55:25;94538.44;;;6.84;79.88
77041;BME280;65974;42.664;23.264;2023-05-10T02:57:57;94547.16;;;6.84;81.06
77041;BME280;65974;42.664;23.264;2023-05-10T03:00:24;94555.50;;;6.86;81.55
77041;BME280;65974;42.664;23.264;2023-05-10T03:02:50;94549.16;;;6.91;81.00
77041;BME280;65974;42.664;23.264;2023-05-10T03:05:15;94543.41;;;6.85;80.72
77041;BME280;65974;42.664;23.264;2023-05-10T03:07:40;94546.47;;;6.87;80.32
77041;BME280;65974;42.664;23.264;2023-05-10T03:10:06;94549.38;;;6.82;80.55
77041;BME280;65974;42.664;23.264;2023-05-10T03:15:31;94557.06;;;6.87;80.61
77041;BME280;65974;42.664;23.264;2023-05-10T03:18:22;94556.16;;;6.80;81.05
77041;BME280;65974;42.664;23.264;2023-05-10T03:20:50;94550.94;;;6.83;80.64
77041;BME280;65974;42.664;23.264;2023-05-10T03:23:27;94561.09;;;6.81;80.71
77041;BME280;65974;42.664;23.264;2023-05-10T03:25:55;94553.28;;;6.88;80.41
77041;BME280;65974;42.664;23.264;2023-05-10T03:28:24;94564.28;;;6.90;80.34
77041;BME280;65974;42.664;23.264;2023-05-10T03:30:52;94564.22;;;6.87;79.89
77041;BME280;65974;42.664;23.264;2023-05-10T03:33:17;94571.81;;;6.88;81.21
77041;BME280;65974;42.664;23.264;2023-05-10T03:35:43;94570.72;;;6.89;80.03
77041;BME280;65974;42.664;23.264;2023-05-10T03:38:11;94567.66;;;6.87;79.54
77041;BME280;65974;42.664;23.264;2023-05-10T03:40:37;94572.22;;;6.90;79.83
77041;BME280;65974;42.664;23.264;2023-05-10T03:43:02;94572.59;;;6.89;80.00
77041;BME280;65974;42.664;23.264;2023-05-10T03:45:28;94571.03;;;6.88;79.71
77041;BME280;65974;42.664;23.264;2023-05-10T03:47:53;94574.47;;;6.88;79.42
77041;BME280;65974;42.664;23.264;2023-05-10T03:50:19;94579.34;;;6.86;79.63
77041;BME280;65974;42.664;23.264;2023-05-10T03:52:45;94580.88;;;6.87;79.85
77041;BME280;65974;42.664;23.264;2023-05-10T03:55:10;94575.19;;;6.85;79.14
77041;BME280;65974;42.664;23.264;2023-05-10T03:57:36;94584.22;;;6.84;78.84
77041;BME280;65974;42.664;23.264;2023-05-10T04:00:02;94585.00;;;6.85;78.78
77041;BME280;65974;42.664;23.264;2023-05-10T04:02:28;94578.50;;;6.82;77.67
77041;BME280;65974;42.664;23.264;2023-05-10T04:04:55;94586.03;;;6.80;77.50
77041;BME280;65974;42.664;23.264;2023-05-10T04:07:20;94589.50;;;6.84;77.82
77041;BME280;65974;42.664;23.264;2023-05-10T04:09:46;94592.50;;;6.83;77.29
77041;BME280;65974;42.664;23.264;2023-05-10T04:12:12;94595.22;;;6.86;77.68
77041;BME280;65974;42.664;23.264;2023-05-10T04:14:37;94590.28;;;6.85;77.49
77041;BME280;65974;42.664;23.264;2023-05-10T04:17:03;94589.56;;;6.88;77.13
77041;BME280;65974;42.664;23.264;2023-05-10T04:19:29;94596.63;;;6.80;78.54
77041;BME280;65974;42.664;23.264;2023-05-10T04:21:55;94594.38;;;6.82;78.38
77041;BME280;65974;42.664;23.264;2023-05-10T04:24:20;94592.44;;;6.79;78.35
77041;BME280;65974;42.664;23.264;2023-05-10T04:26:46;94588.06;;;6.87;77.66
77041;BME280;65974;42.664;23.264;2023-05-10T04:29:11;94598.63;;;6.87;78.03
77041;BME280;65974;42.664;23.264;2023-05-10T04:31:37;94587.28;;;6.86;77.78
77041;BME280;65974;42.664;23.264;2023-05-10T04:34:02;94593.63;;;6.82;77.99
77041;BME280;65974;42.664;23.264;2023-05-10T04:36:28;94596.19;;;6.78;78.24
77041;BME280;65974;42.664;23.264;2023-05-10T04:38:54;94598.59;;;6.83;77.66
77041;BME280;65974;42.664;23.264;2023-05-10T04:41:19;94595.22;;;6.86;77.99
77041;BME280;65974;42.664;23.264;2023-05-10T04:43:45;94594.38;;;6.82;78.09
77041;BME280;65974;42.664;23.264;2023-05-10T04:46:11;94599.00;;;6.85;77.97
77041;BME280;65974;42.664;23.264;2023-05-10T04:48:36;94599.53;;;6.94;78.12
77041;BME280;65974;42.664;23.264;2023-05-10T04:51:02;94596.47;;;6.92;77.47
77041;BME280;65974;42.664;23.264;2023-05-10T04:53:29;94597.59;;;6.91;78.04
77041;BME280;65974;42.664;23.264;2023-05-10T04:55:54;94590.53;;;6.99;78.40
77041;BME280;65974;42.664;23.264;2023-05-10T04:58:20;94590.75;;;6.90;77.34
77041;BME280;65974;42.664;23.264;2023-05-10T05:00:46;94596.34;;;7.04;77.26
77041;BME280;65974;42.664;23.264;2023-05-10T05:03:11;94595.16;;;7.02;77.70
77041;BME280;65974;42.664;23.264;2023-05-10T05:05:36;94598.25;;;7.07;77.71
77041;BME280;65974;42.664;23.264;2023-05-10T05:08:02;94596.84;;;7.14;77.17
77041;BME280;65974;42.664;23.264;2023-05-10T05:10:27;94604.13;;;7.17;77.33
77041;BME280;65974;42.664;23.264;2023-05-10T05:12:53;94602.34;;;7.24;77.06
77041;BME280;65974;42.664;23.264;2023-05-10T05:15:18;94601.59;;;7.24;76.36
77041;BME280;65974;42.664;23.264;2023-05-10T05:17:44;94603.44;;;7.20;76.47
77041;BME280;65974;42.664;23.264;2023-05-10T05:20:10;94596.31;;;7.24;76.20
77041;BME280;65974;42.664;23.264;2023-05-10T05:22:36;94602.75;;;7.26;76.96
77041;BME280;65974;42.664;23.264;2023-05-10T05:25:02;94619.00;;;7.25;77.37
77041;BME280;65974;42.664;23.264;2023-05-10T05:27:29;94609.13;;;7.22;78.12
77041;BME280;65974;42.664;23.264;2023-05-10T05:29:57;94609.88;;;7.22;78.91
77041;BME280;65974;42.664;23.264;2023-05-10T05:32:23;94610.50;;;7.16;79.36
77041;BME280;65974;42.664;23.264;2023-05-10T05:34:49;94617.22;;;7.10;79.88
77041;BME280;65974;42.664;23.264;2023-05-10T05:37:16;94617.56;;;7.08;80.25
77041;BME280;65974;42.664;23.264;2023-05-10T05:39:42;94618.47;;;7.16;80.12
77041;BME280;65974;42.664;23.264;2023-05-10T05:42:12;94620.69;;;7.14;80.26
77041;BME280;65974;42.664;23.264;2023-05-10T05:44:38;94623.28;;;7.10;80.32
77041;BME280;65974;42.664;23.264;2023-05-10T05:47:03;94620.22;;;7.08;80.05
77041;BME280;65974;42.664;23.264;2023-05-10T05:49:30;94631.38;;;7.17;80.73
77041;BME280;65974;42.664;23.264;2023-05-10T05:51:59;94628.22;;;7.12;80.49
77041;BME280;65974;42.664;23.264;2023-05-10T05:54:26;94630.88;;;7.12;80.38
77041;BME280;65974;42.664;23.264;2023-05-10T05:56:54;94625.72;;;7.19;79.73
77041;BME280;65974;42.664;23.264;2023-05-10T05:59:20;94641.66;;;7.22;80.08
77041;BME280;65974;42.664;23.264;2023-05-10T06:01:45;94621.66;;;7.25;79.75
77041;BME280;65974;42.664;23.264;2023-05-10T06:04:11;94629.59;;;7.25;78.93
77041;BME280;65974;42.664;23.264;2023-05-10T06:06:37;94631.16;;;7.26;79.19
77041;BME280;65974;42.664;23.264;2023-05-10T06:09:02;94638.78;;;7.31;79.49
77041;BME280;65974;42.664;23.264;2023-05-10T06:11:28;94641.16;;;7.36;79.03
77041;BME280;65974;42.664;23.264;2023-05-10T06:13:53;94640.47;;;7.39;79.24
77041;BME280;65974;42.664;23.264;2023-05-10T06:16:19;94635.19;;;7.39;79.12
77041;BME280;65974;42.664;23.264;2023-05-10T06:18:44;94645.06;;;7.42;78.55
77041;BME280;65974;42.664;23.264;2023-05-10T06:21:10;94636.75;;;7.43;78.83
77041;BME280;65974;42.664;23.264;2023-05-10T06:23:35;94637.53;;;7.44;79.43
77041;BME280;65974;42.664;23.264;2023-05-10T06:26:01;94640.66;;;7.49;79.16
77041;BME280;65974;42.664;23.264;2023-05-10T06:28:26;94646.28;;;7.48;79.42
77041;BME280;65974;42.664;23.264;2023-05-10T06:30:51;94647.13;;;7.52;78.49
77041;BME280;65974;42.664;23.264;2023-05-10T06:33:17;94638.47;;;7.55;78.34
77041;BME280;65974;42.664;23.264;2023-05-10T06:35:42;94641.53;;;7.57;78.75
77041;BME280;65974;42.664;23.264;2023-05-10T06:38:08;94647.03;;;7.67;78.50
77041;BME280;65974;42.664;23.264;2023-05-10T06:40:33;94643.25;;;7.68;77.64
77041;BME280;65974;42.664;23.264;2023-05-10T06:42:59;94653.03;;;7.64;78.30
77041;BME280;65974;42.664;23.264;2023-05-10T06:45:24;94653.91;;;7.72;78.26
77041;BME280;65974;42.664;23.264;2023-05-10T06:47:51;94651.81;;;7.81;78.88
77041;BME280;65974;42.664;23.264;2023-05-10T06:50:16;94649.56;;;7.83;77.55
77041;BME280;65974;42.664;23.264;2023-05-10T06:52:42;94648.03;;;7.82;76.93
77041;BME280;65974;42.664;23.264;2023-05-10T06:55:07;94653.00;;;7.83;76.11
77041;BME280;65974;42.664;23.264;2023-05-10T06:57:34;94654.50;;;7.84;77.45
77041;BME280;65974;42.664;23.264;2023-05-10T06:59:59;94657.19;;;7.88;76.73
77041;BME280;65974;42.664;23.264;2023-05-10T07:02:25;94653.00;;;7.83;76.74
77041;BME280;65974;42.664;23.264;2023-05-10T07:04:52;94664.00;;;7.86;75.85
77041;BME280;65974;42.664;23.264;2023-05-10T07:07:18;94658.16;;;7.76;76.72
77041;BME280;65974;42.664;23.264;2023-05-10T07:09:44;94663.09;;;7.78;75.92
77041;BME280;65974;42.664;23.264;2023-05-10T07:12:10;94653.16;;;7.71;75.53
77041;BME280;65974;42.664;23.264;2023-05-10T07:14:35;94663.50;;;7.80;75.85
77041;BME280;65974;42.664;23.264;2023-05-10T07:17:00;94662.28;;;7.74;75.69
77041;BME280;65974;42.664;23.264;2023-05-10T07:19:26;94660.75;;;7.73;75.69
77041;BME280;65974;42.664;23.264;2023-05-10T07:21:51;94659.63;;;7.74;76.94
77041;BME280;65974;42.664;23.264;2023-05-10T07:24:17;94663.81;;;7.75;75.83
77041;BME280;65974;42.664;23.264;2023-05-10T07:26:42;94670.66;;;7.76;76.13
77041;BME280;65974;42.664;23.264;2023-05-10T07:29:08;94666.94;;;7.80;76.70
77041;BME280;65974;42.664;23.264;2023-05-10T07:31:34;94676.84;;;7.83;75.82
77041;BME280;65974;42.664;23.264;2023-05-10T07:33:59;94677.13;;;7.78;75.32
77041;BME280;65974;42.664;23.264;2023-05-10T07:36:25;94679.56;;;7.87;76.39
77041;BME280;65974;42.664;23.264;2023-05-10T07:38:50;94673.00;;;7.81;75.83
77041;BME280;65974;42.664;23.264;2023-05-10T07:41:16;94681.38;;;7.83;76.93
77041;BME280;65974;42.664;23.264;2023-05-10T07:43:41;94687.88;;;7.86;76.48
77041;BME280;65974;42.664;23.264;2023-05-10T07:46:07;94673.25;;;7.95;76.21
77041;BME280;65974;42.664;23.264;2023-05-10T07:48:32;94675.53;;;7.97;76.06
77041;BME280;65974;42.664;23.264;2023-05-10T07:50:58;94673.25;;;7.95;75.68
77041;BME280;65974;42.664;23.264;2023-05-10T07:53:23;94680.91;;;8.00;75.46
77041;BME280;65974;42.664;23.264;2023-05-10T07:55:54;94688.03;;;7.96;75.82
77041;BME280;65974;42.664;23.264;2023-05-10T07:58:23;94685.03;;;7.98;75.37
77041;BME280;65974;42.664;23.264;2023-05-10T08:00:48;94678.53;;;7.95;75.54
77041;BME280;65974;42.664;23.264;2023-05-10T08:03:14;94684.63;;;7.96;74.76
77041;BME280;65974;42.664;23.264;2023-05-10T08:05:40;94690.09;;;8.06;75.39
77041;BME280;65974;42.664;23.264;2023-05-10T08:08:06;94687.44;;;8.06;75.05
77041;BME280;65974;42.664;23.264;2023-05-10T08:10:31;94691.69;;;8.11;73.94
77041;BME280;65974;42.664;23.264;2023-05-10T08:12:57;94697.53;;;8.20;74.58
77041;BME280;65974;42.664;23.264;2023-05-10T08:15:24;94684.19;;;8.16;75.10
77041;BME280;65974;42.664;23.264;2023-05-10T08:17:49;94684.31;;;8.23;75.18
77041;BME280;65974;42.664;23.264;2023-05-10T08:20:15;94683.28;;;8.28;74.35
77041;BME280;65974;42.664;23.264;2023-05-10T08:22:44;94677.59;;;8.29;74.71
77041;BME280;65974;42.664;23.264;2023-05-10T08:25:10;94682.22;;;8.32;73.89
77041;BME280;65974;42.664;23.264;2023-05-10T08:27:35;94689.03;;;8.33;74.79
77041;BME280;65974;42.664;23.264;2023-05-10T08:30:01;94697.50;;;8.42;74.61
77041;BME280;65974;42.664;23.264;2023-05-10T08:32:26;94699.59;;;8.30;74.80
77041;BME280;65974;42.664;23.264;2023-05-10T08:34:51;94692.00;;;8.28;75.31
77041;BME280;65974;42.664;23.264;2023-05-10T08:37:17;94692.47;;;8.34;75.92
77041;BME280;65974;42.664;23.264;2023-05-10T08:39:42;94694.34;;;8.33;76.17
77041;BME280;65974;42.664;23.264;2023-05-10T08:42:08;94687.50;;;8.32;75.46
77041;BME280;65974;42.664;23.264;2023-05-10T08:44:35;94688.16;;;8.26;75.84
77041;BME280;65974;42.664;23.264;2023-05-10T08:47:05;94697.34;;;8.32;76.04
77041;BME280;65974;42.664;23.264;2023-05-10T08:49:34;94688.25;;;8.33;76.33
77041;BME280;65974;42.664;23.264;2023-05-10T08:52:03;94693.69;;;8.40;76.66
77041;BME280;65974;42.664;23.264;2023-05-10T08:54:33;94687.72;;;8.46;76.74
77041;BME280;65974;42.664;23.264;2023-05-10T08:56:59;94688.09;;;8.45;75.53
77041;BME280;65974;42.664;23.264;2023-05-10T08:59:25;94685.97;;;8.57;76.88
77041;BME280;65974;42.664;23.264;2023-05-10T09:01:51;94691.75;;;8.63;76.63
77041;BME280;65974;42.664;23.264;2023-05-10T09:04:19;94690.72;;;8.71;76.40
77041;BME280;65974;42.664;23.264;2023-05-10T09:06:45;94698.75;;;8.75;75.72
77041;BME280;65974;42.664;23.264;2023-05-10T09:09:10;94695.63;;;8.69;75.84
77041;BME280;65974;42.664;23.264;2023-05-10T09:11:36;94687.34;;;8.74;75.93
77041;BME280;65974;42.664;23.264;2023-05-10T09:14:02;94693.22;;;8.87;76.12
77041;BME280;65974;42.664;23.264;2023-05-10T09:16:27;94691.28;;;8.84;75.67
77041;BME280;65974;42.664;23.264;2023-05-10T09:18:54;94689.38;;;8.84;75.37
77041;BME280;65974;42.664;23.264;2023-05-10T09:21:20;94688.97;;;8.82;75.23
77041;BME280;65974;42.664;23.264;2023-05-10T09:23:45;94687.50;;;8.85;74.44
77041;BME280;65974;42.664;23.264;2023-05-10T09:26:12;94684.44;;;8.83;75.01
77041;BME280;65974;42.664;23.264;2023-05-10T09:28:55;94683.13;;;8.99;74.65
77041;BME280;65974;42.664;23.264;2023-05-10T09:31:21;94689.25;;;9.03;74.86
77041;BME280;65974;42.664;23.264;2023-05-10T09:33:48;94696.03;;;9.01;74.08
77041;BME280;65974;42.664;23.264;2023-05-10T09:36:16;94700.53;;;8.97;74.15
77041;BME280;65974;42.664;23.264;2023-05-10T09:38:49;94683.53;;;9.01;73.86
77041;BME280;65974;42.664;23.264;2023-05-10T09:41:19;94681.53;;;8.95;73.18
77041;BME280;65974;42.664;23.264;2023-05-10T09:43:45;94682.44;;;9.06;73.52
77041;BME280;65974;42.664;23.264;2023-05-10T09:46:10;94689.25;;;9.03;73.12
77041;BME280;65974;42.664;23.264;2023-05-10T09:48:45;94688.06;;;9.01;73.00
77041;BME280;65974;42.664;23.264;2023-05-10T09:51:10;94688.91;;;9.05;72.96
77041;BME280;65974;42.664;23.264;2023-05-10T09:53:43;94678.31;;;9.08;72.26
77041;BME280;65974;42.664;23.264;2023-05-10T09:56:08;94682.16;;;9.14;73.10
77041;BME280;65974;42.664;23.264;2023-05-10T09:58:36;94678.13;;;9.24;72.36
77041;BME280;65974;42.664;23.264;2023-05-10T10:01:03;94675.53;;;9.31;73.18
77041;BME280;65974;42.664;23.264;2023-05-10T10:03:28;94675.22;;;9.36;71.63
77041;BME280;65974;42.664;23.264;2023-05-10T10:05:55;94672.56;;;9.36;71.15
77041;BME280;65974;42.664;23.264;2023-05-10T10:08:21;94668.91;;;9.18;71.75
77041;BME280;65974;42.664;23.264;2023-05-10T10:10:47;94666.81;;;9.30;71.93
77041;BME280;65974;42.664;23.264;2023-05-10T10:13:13;94667.63;;;9.38;71.28
77041;BME280;65974;42.664;23.264;2023-05-10T10:15:39;94669.94;;;9.39;71.58
77041;BME280;65974;42.664;23.264;2023-05-10T10:18:05;94658.59;;;9.46;71.12
77041;BME280;65974;42.664;23.264;2023-05-10T10:20:30;94662.06;;;9.50;71.62
77041;BME280;65974;42.664;23.264;2023-05-10T10:22:56;94657.13;;;9.49;70.44
77041;BME280;65974;42.664;23.264;2023-05-10T10:25:22;94664.69;;;9.47;70.88
77041;BME280;65974;42.664;23.264;2023-05-10T10:33:42;94665.13;;;9.52;71.09
77041;BME280;65974;42.664;23.264;2023-05-10T10:36:15;94664.72;;;9.50;70.74
77041;BME280;65974;42.664;23.264;2023-05-10T10:41:28;94666.16;;;9.41;70.91
77041;BME280;65974;42.664;23.264;2023-05-10T10:49:49;94674.25;;;9.51;71.48
77041;BME280;65974;42.664;23.264;2023-05-10T10:55:14;94666.19;;;9.44;71.22
77041;BME280;65974;42.664;23.264;2023-05-10T11:02:44;94669.00;;;9.58;70.26
77041;BME280;65974;42.664;23.264;2023-05-10T11:05:38;94676.53;;;9.53;70.91
77041;BME280;65974;42.664;23.264;2023-05-10T11:10:32;94673.97;;;9.63;70.48
77041;BME280;65974;42.664;23.264;2023-05-10T11:13:02;94672.47;;;9.62;70.52
77041;BME280;65974;42.664;23.264;2023-05-10T11:15:33;94665.91;;;9.56;70.20
77041;BME280;65974;42.664;23.264;2023-05-10T11:18:00;94661.44;;;9.60;70.83
77041;BME280;65974;42.664;23.264;2023-05-10T11:20:41;94671.78;;;9.69;70.37
77041;BME280;65974;42.664;23.264;2023-05-10T11:23:12;94665.22;;;9.63;70.35
77041;BME280;65974;42.664;23.264;2023-05-10T11:25:42;94665.63;;;9.65;70.26
77041;BME280;65974;42.664;23.264;2023-05-10T11:28:10;94663.03;;;9.72;69.72
77041;BME280;65974;42.664;23.264;2023-05-10T11:30:37;94667.16;;;9.66;70.51
77041;BME280;65974;42.664;23.264;2023-05-10T11:33:03;94665.56;;;9.58;70.48
77041;BME280;65974;42.664;23.264;2023-05-10T11:35:28;94666.44;;;9.69;70.91
77041;BME280;65974;42.664;23.264;2023-05-10T11:37:54;94668.75;;;9.70;70.83
77041;BME280;65974;42.664;23.264;2023-05-10T11:40:21;94672.88;;;9.64;70.48
77041;BME280;65974;42.664;23.264;2023-05-10T11:42:50;94663.75;;;9.65;70.59
77041;BME280;65974;42.664;23.264;2023-05-10T11:45:15;94664.13;;;9.64;70.72
77041;BME280;65974;42.664;23.264;2023-05-10T11:47:41;94667.16;;;9.62;70.80
77041;BME280;65974;42.664;23.264;2023-05-10T11:50:09;94662.94;;;9.61;70.42
77041;BME280;65974;42.664;23.264;2023-05-10T11:52:36;94655.41;;;9.67;70.84
77041;BME280;65974;42.664;23.264;2023-05-10T11:55:04;94655.38;;;9.63;70.83
77041;BME280;65974;42.664;23.264;2023-05-10T11:57:30;94654.97;;;9.61;71.19
77041;BME280;65974;42.664;23.264;2023-05-10T11:59:57;94659.63;;;9.71;70.87
77041;BME280;65974;42.664;23.264;2023-05-10T12:02:22;94664.94;;;9.71;70.88
77041;BME280;65974;42.664;23.264;2023-05-10T12:04:50;94656.97;;;9.71;70.98
77041;BME280;65974;42.664;23.264;2023-05-10T12:07:16;94657.34;;;9.73;70.86
77041;BME280;65974;42.664;23.264;2023-05-10T12:10:05;94647.84;;;9.69;70.71
77041;BME280;65974;42.664;23.264;2023-05-10T12:15:19;94641.41;;;9.73;70.98
77041;BME280;65974;42.664;23.264;2023-05-10T12:17:45;94641.16;;;9.85;71.12
77041;BME280;65974;42.664;23.264;2023-05-10T12:22:41;94649.91;;;9.89;70.45
77041;BME280;65974;42.664;23.264;2023-05-10T12:25:09;94640.38;;;9.85;70.91
77041;BME280;65974;42.664;23.264;2023-05-10T12:27:35;94639.25;;;9.86;70.16
77041;BME280;65974;42.664;23.264;2023-05-10T12:30:00;94635.34;;;9.76;70.52
77041;BME280;65974;42.664;23.264;2023-05-10T12:32:41;94638.00;;;9.76;70.75
77041;BME280;65974;42.664;23.264;2023-05-10T12:35:07;94634.53;;;9.69;71.32
77041;BME280;65974;42.664;23.264;2023-05-10T12:37:34;94633.06;;;9.75;71.17
77041;BME280;65974;42.664;23.264;2023-05-10T12:40:07;94631.50;;;9.70;70.93
77041;BME280;65974;42.664;23.264;2023-05-10T12:42:34;94623.53;;;9.70;71.10
77041;BME280;65974;42.664;23.264;2023-05-10T12:45:01;94631.84;;;9.65;70.80
77041;BME280;65974;42.664;23.264;2023-05-10T12:47:27;94632.56;;;9.62;71.44
77041;BME280;65974;42.664;23.264;2023-05-10T12:49:52;94634.09;;;9.63;71.93
77041;BME280;65974;42.664;23.264;2023-05-10T12:52:18;94629.88;;;9.59;71.41
77041;BME280;65974;42.664;23.264;2023-05-10T12:54:43;94630.63;;;9.59;71.82
77041;BME280;65974;42.664;23.264;2023-05-10T12:57:09;94629.53;;;9.60;71.65
77041;BME280;65974;42.664;23.264;2023-05-10T12:59:34;94624.56;;;9.59;71.76
77041;BME280;65974;42.664;23.264;2023-05-10T13:02:00;94624.53;;;9.55;71.45
77041;BME280;65974;42.664;23.264;2023-05-10T13:04:25;94619.53;;;9.50;71.87
77041;BME280;65974;42.664;23.264;2023-05-10T13:06:50;94618.41;;;9.51;72.15
77041;BME280;65974;42.664;23.264;2023-05-10T13:09:16;94605.94;;;9.59;71.92
77041;BME280;65974;42.664;23.264;2023-05-10T13:11:42;94610.44;;;9.51;71.71
77041;BME280;65974;42.664;23.264;2023-05-10T13:14:07;94604.78;;;9.56;72.05
77041;BME280;65974;42.664;23.264;2023-05-10T13:16:33;94607.09;;;9.58;72.04
77041;BME280;65974;42.664;23.264;2023-05-10T13:18:58;94606.31;;;9.57;71.46
77041;BME280;65974;42.664;23.264;2023-05-10T13:21:24;94606.31;;;9.57;71.72
77041;BME280;65974;42.664;23.264;2023-05-10T13:23:50;94584.75;;;9.66;71.24
77041;BME280;65974;42.664;23.264;2023-05-10T13:26:16;94588.50;;;9.61;70.68
77041;BME280;65974;42.664;23.264;2023-05-10T13:28:41;94589.28;;;9.65;71.11
77041;BME280;65974;42.664;23.264;2023-05-10T13:31:07;94588.94;;;9.67;71.17
77041;BME280;65974;42.664;23.264;2023-05-10T13:33:33;94578.72;;;9.72;70.83
77041;BME280;65974;42.664;23.264;2023-05-10T13:35:58;94587.47;;;9.76;70.80
77041;BME280;65974;42.664;23.264;2023-05-10T13:38:23;94586.69;;;9.72;70.25
77041;BME280;65974;42.664;23.264;2023-05-10T13:40:49;94579.44;;;9.69;70.74
77041;BME280;65974;42.664;23.264;2023-05-10T13:43:18;94576.78;;;9.69;70.91